Java, South Dakota
Current Conditions -  °F | °C
As of 7:52 AM on Tuesday 27 Jan 2015 (Local Time) from KMBG Reporting Station
Clear Clear  
Wind Chill: 22°   Ceiling: Unl
Heat Index: 30°   Visibility: 10mi
Dew Point: 27°   Wind: 8mph
Humidity: 88%   Direction: 140°SE
Pressure: 29.92"   Gusts: NA
Location:  45.5°N, 99.89°W
Report Text: KMBG 271352Z AUTO 14007KT 10SM CLR M01/M03 A2992 RMK AO2 SLP149 T10111028
Loading
Personal Weather Stations






























Interactive Weather Map New forecast layout! Learn more

10-Day Weather Forecast

Advertisements
Track Severe Weather on mobile